Time;durP1;ratioP1;P1;durP2;ratioP2;P2;SDS_P1;SDS_P2;PMS_P1;PMS_P2;Temp;Humidity;BMP_temperature;BMP_pressure;BME280_temperature;BME280_humidity;BME280_pressure;Samples;Min_cycle;Max_cycle;Signal;HPM_P1;HPM_P2
2024/05/07 00:19:08;;;;;;;10.8;7.6;;;;;;;;;;;;;-73
2024/05/07 00:49:10;;;;;;;10.5;6.7;;;;;;;;;;;;;-72
2024/05/07 01:19:12;;;;;;;11.4;6.9;;;;;;;;;;;;;-71
2024/05/07 01:49:13;;;;;;;9.8;5.6;;;;;;;;;;;;;-73
2024/05/07 02:19:14;;;;;;;11.1;6.5;;;;;;;;;;;;;-71
2024/05/07 02:49:15;;;;;;;8.4;5.9;;;;;;;;;;;;;-70
2024/05/07 03:19:16;;;;;;;9.5;6;;;;;;;;;;;;;-73
2024/05/07 03:49:18;;;;;;;10;6.3;;;;;;;;;;;;;-69
2024/05/07 04:19:19;;;;;;;15.2;10.5;;;;;;;;;;;;;-71
2024/05/07 04:49:20;;;;;;;15.1;11.1;;;;;;;;;;;;;-72
2024/05/07 05:19:22;;;;;;;21.4;13.8;;;;;;;;;;;;;-71
2024/05/07 05:49:23;;;;;;;17.3;13.2;;;;;;;;;;;;;-71
2024/05/07 06:19:25;;;;;;;13.3;9.9;;;;;;;;;;;;;-70
2024/05/07 06:49:28;;;;;;;9.4;7.4;;;;;;;;;;;;;-69
2024/05/07 07:19:33;;;;;;;6.7;5.6;;;;;;;;;;;;;-69
2024/05/07 07:49:36;;;;;;;4.2;3.5;;;;;;;;;;;;;-72
2024/05/07 08:19:40;;;;;;;5.4;3.8;;;;;;;;;;;;;-70
2024/05/07 08:49:42;;;;;;;3.6;2.9;;;;;;;;;;;;;-68
2024/05/07 09:19:46;;;;;;;5;3.7;;;;;;;;;;;;;-67
2024/05/07 09:49:50;;;;;;;2.8;2;;;;;;;;;;;;;-71
2024/05/07 10:19:56;;;;;;;2.9;2;;;;;;;;;;;;;-70
2024/05/07 10:49:59;;;;;;;2.9;2.2;;;;;;;;;;;;;-71
2024/05/07 11:20:04;;;;;;;3;2.6;;;;;;;;;;;;;-67
2024/05/07 11:50:07;;;;;;;4.2;2.8;;;;;;;;;;;;;-66
2024/05/07 12:20:11;;;;;;;3;2.7;;;;;;;;;;;;;-69
2024/05/07 12:50:15;;;;;;;4.4;2.8;;;;;;;;;;;;;-67
2024/05/07 13:20:20;;;;;;;4.6;3;;;;;;;;;;;;;-70
2024/05/07 13:50:24;;;;;;;4.4;3.1;;;;;;;;;;;;;-70
2024/05/07 14:20:29;;;;;;;4;3.4;;;;;;;;;;;;;-71
2024/05/07 14:50:33;;;;;;;5.2;3.6;;;;;;;;;;;;;-69
2024/05/07 15:20:38;;;;;;;4.6;3.5;;;;;;;;;;;;;-68
2024/05/07 15:50:42;;;;;;;8.6;5.7;;;;;;;;;;;;;-68
2024/05/07 16:20:47;;;;;;;15.1;11.3;;;;;;;;;;;;;-66
2024/05/07 16:50:51;;;;;;;8.5;7.1;;;;;;;;;;;;;-68
2024/05/07 17:20:55;;;;;;;13.2;9.7;;;;;;;;;;;;;-66
2024/05/07 17:50:58;;;;;;;15.2;12.2;;;;;;;;;;;;;-69
2024/05/07 18:21:02;;;;;;;36.4;21;;;;;;;;;;;;;-70
2024/05/07 18:51:05;;;;;;;16.3;12;;;;;;;;;;;;;-69
2024/05/07 19:21:10;;;;;;;16.4;12.3;;;;;;;;;;;;;-69
2024/05/07 19:51:09;;;;;;;14.5;11.1;;;;;;;;;;;;;-70
2024/05/07 20:21:14;;;;;;;16;11.3;;;;;;;;;;;;;-68
2024/05/07 20:51:13;;;;;;;11.5;8.1;;;;;;;;;;;;;-68
2024/05/07 21:21:16;;;;;;;11.8;8;;;;;;;;;;;;;-68
2024/05/07 21:51:18;;;;;;;9.4;7.2;;;;;;;;;;;;;-69
2024/05/07 22:21:20;;;;;;;10.6;7.6;;;;;;;;;;;;;-68
2024/05/07 22:51:22;;;;;;;8.8;5.8;;;;;;;;;;;;;-69
2024/05/07 23:21:24;;;;;;;5.7;3.9;;;;;;;;;;;;;-66
2024/05/07 23:51:25;;;;;;;5.6;3.5;;;;;;;;;;;;;-70
